Time;durP1;ratioP1;P1;durP2;ratioP2;P2;SDS_P1;SDS_P2;PMS_P1;PMS_P2;Temp;Humidity;BMP_temperature;BMP_pressure;BME280_temperature;BME280_humidity;BME280_pressure;Samples;Min_cycle;Max_cycle;Signal;HPM_P1;HPM_P2
2021/01/08 00:01:27;;;;;;;21.10;15.27;;;;;;;0.40;91.87;99732.88;5060885;28;20465;-68
2021/01/08 00:03:54;;;;;;;24.57;14.73;;;;;;;0.50;91.60;99726.16;5062589;28;20452;-68
2021/01/08 00:06:21;;;;;;;24.43;14.90;;;;;;;0.56;91.81;99728.44;5060632;28;20860;-68
2021/01/08 00:08:47;;;;;;;20.97;15.17;;;;;;;0.55;91.60;99726.72;5062204;28;20516;-67
2021/01/08 00:11:19;;;;;;;21.53;14.37;;;;;;;0.65;91.44;99727.88;5061095;28;20477;-68
2021/01/08 00:13:46;;;;;;;21.70;15.10;;;;;;;0.85;90.26;99737.25;5062499;28;21021;-67
2021/01/08 00:16:12;;;;;;;22.97;14.93;;;;;;;0.63;90.77;99728.94;5060386;28;20476;-68
2021/01/08 00:18:38;;;;;;;20.60;14.93;;;;;;;0.46;91.27;99727.28;5061734;28;20456;-68
2021/01/08 00:21:05;;;;;;;20.50;14.57;;;;;;;0.39;91.85;99729.41;5061006;28;20766;-68
2021/01/08 00:23:31;;;;;;;19.70;13.20;;;;;;;0.41;91.88;99730.16;5062084;28;20472;-68
2021/01/08 00:25:58;;;;;;;22.83;14.93;;;;;;;0.44;92.29;99729.16;5060165;28;20959;-68
2021/01/08 00:28:24;;;;;;;20.97;15.90;;;;;;;0.48;92.08;99738.56;5061992;28;20982;-68
2021/01/08 00:30:51;;;;;;;22.50;14.50;;;;;;;0.64;91.06;99739.34;5060938;28;20476;-67
2021/01/08 00:33:17;;;;;;;22.50;14.80;;;;;;;0.51;91.35;99731.31;5061607;28;20473;-68
2021/01/08 00:35:43;;;;;;;21.80;15.67;;;;;;;0.55;91.37;99737.25;5061064;28;20498;-68
2021/01/08 00:38:10;;;;;;;22.20;15.27;;;;;;;0.46;91.88;99741.25;5062119;28;20493;-68
2021/01/08 00:40:36;;;;;;;25.80;15.40;;;;;;;0.70;91.27;99732.88;5060065;28;20496;-68
2021/01/08 00:43:03;;;;;;;22.07;14.70;;;;;;;0.73;90.65;99736.19;5062291;28;20509;-67
2021/01/08 00:45:29;;;;;;;22.53;14.73;;;;;;;0.53;90.99;99732.06;5060336;28;20477;-68
2021/01/08 00:47:55;;;;;;;21.47;13.47;;;;;;;0.48;91.58;99741.19;5060996;28;20544;-68
2021/01/08 00:50:21;;;;;;;20.67;13.37;;;;;;;0.48;91.33;99731.50;5060738;28;20456;-68
2021/01/08 00:52:47;;;;;;;19.80;13.60;;;;;;;0.41;91.69;99734.59;5061974;28;20525;-67
2021/01/08 00:55:14;;;;;;;19.60;13.47;;;;;;;0.53;91.20;99729.44;5059292;28;20477;-67
2021/01/08 00:57:41;;;;;;;20.70;13.37;;;;;;;0.42;91.67;99731.00;5061201;28;20433;-67
2021/01/08 01:00:08;;;;;;;22.20;14.03;;;;;;;0.33;91.99;99740.25;5060613;28;20459;-68
2021/01/08 01:02:34;;;;;;;21.20;13.67;;;;;;;0.35;91.98;99735.78;5061508;28;20461;-68
2021/01/08 01:05:00;;;;;;;20.77;13.93;;;;;;;0.41;91.37;99740.69;5060882;28;20759;-66
2021/01/08 01:07:26;;;;;;;21.73;12.50;;;;;;;0.43;91.69;99735.34;5060076;28;20504;-66
2021/01/08 01:09:53;;;;;;;18.20;12.20;;;;;;;0.39;91.71;99739.09;5060967;28;20870;-66
2021/01/08 01:12:20;;;;;;;18.00;12.67;;;;;;;0.29;92.11;99744.03;5060145;28;20496;-67
2021/01/08 01:14:46;;;;;;;22.50;14.47;;;;;;;0.34;92.14;99742.81;5061476;28;20527;-66
2021/01/08 01:17:13;;;;;;;22.47;14.00;;;;;;;0.42;91.60;99737.13;5058896;28;20477;-66
2021/01/08 01:19:39;;;;;;;20.57;13.67;;;;;;;0.29;91.98;99742.22;5060297;28;20512;-67
2021/01/08 01:22:05;;;;;;;18.03;12.37;;;;;;;0.31;92.18;99743.00;5059707;28;20505;-67
2021/01/08 01:24:31;;;;;;;19.00;12.90;;;;;;;0.44;91.91;99745.78;5060583;28;20477;-67
2021/01/08 01:26:58;;;;;;;20.37;13.10;;;;;;;0.49;91.49;99750.78;5058939;28;20452;-67
2021/01/08 01:29:26;;;;;;;19.60;12.50;;;;;;;0.53;91.35;99753.13;5060107;28;20502;-66
2021/01/08 01:31:52;;;;;;;17.87;11.70;;;;;;;0.36;91.69;99750.63;5059410;28;20500;-66
2021/01/08 01:34:19;;;;;;;19.63;12.67;;;;;;;0.56;91.23;99752.09;5060490;28;20481;-67
2021/01/08 01:36:45;;;;;;;21.60;13.10;;;;;;;0.41;91.56;99753.81;5040698;28;20512;-66
2021/01/08 01:39:12;;;;;;;21.70;13.50;;;;;;;0.37;91.45;99750.53;5045139;28;20457;-67
2021/01/08 01:41:38;;;;;;;18.63;11.90;;;;;;;0.37;91.83;99753.16;5060628;28;20476;-67
2021/01/08 01:44:05;;;;;;;22.53;13.10;;;;;;;0.34;91.69;99760.38;5063550;28;20429;-67
2021/01/08 01:46:32;;;;;;;26.70;14.60;;;;;;;0.27;91.83;99761.66;5064604;28;20492;-66
2021/01/08 01:48:59;;;;;;;21.50;13.00;;;;;;;0.21;92.25;99759.38;5065894;28;20503;-67
2021/01/08 01:51:25;;;;;;;20.60;13.03;;;;;;;0.28;92.95;99765.97;5065337;28;20571;-67
2021/01/08 01:53:52;;;;;;;23.87;13.60;;;;;;;0.36;91.97;99759.38;5065691;28;20448;-67
2021/01/08 01:56:18;;;;;;;20.30;13.73;;;;;;;0.39;91.68;99760.97;5064317;28;20487;-67
2021/01/08 01:58:45;;;;;;;21.80;12.00;;;;;;;0.26;92.20;99760.84;5065401;28;20481;-67
2021/01/08 02:01:11;;;;;;;21.27;13.50;;;;;;;0.23;92.27;99753.09;5064763;28;20519;-67
2021/01/08 02:03:41;;;;;;;22.50;13.13;;;;;;;0.25;92.62;99766.16;5065467;28;20459;-67
2021/01/08 02:06:11;;;;;;;21.53;12.67;;;;;;;0.34;92.13;99760.38;5064136;28;20977;-64
2021/01/08 02:08:40;;;;;;;20.33;11.73;;;;;;;0.32;91.99;99757.84;5065939;28;20535;-67
2021/01/08 02:11:09;;;;;;;22.83;13.30;;;;;;;0.33;92.56;99763.94;5063820;28;20579;-67
2021/01/08 02:13:40;;;;;;;22.50;12.60;;;;;;;0.35;92.41;99759.47;5065668;28;20516;-67
2021/01/08 02:16:08;;;;;;;22.57;13.43;;;;;;;0.44;91.82;99763.34;5063755;28;20545;-67
2021/01/08 02:18:34;;;;;;;20.70;14.00;;;;;;;0.35;91.85;99757.66;5065451;28;20996;-67
2021/01/08 02:21:05;;;;;;;22.10;13.93;;;;;;;0.44;92.02;99765.97;5064005;28;20496;-67
2021/01/08 02:23:39;;;;;;;22.27;14.20;;;;;;;0.35;91.91;99767.34;5065471;28;20491;-67
2021/01/08 02:26:07;;;;;;;22.40;12.97;;;;;;;0.34;91.97;99766.47;5063680;28;20558;-67
2021/01/08 02:28:33;;;;;;;20.20;11.87;;;;;;;0.42;92.28;99767.81;5065290;28;20564;-67
2021/01/08 02:31:00;;;;;;;21.83;12.40;;;;;;;0.49;91.76;99762.13;5063970;28;21027;-68
2021/01/08 02:33:27;;;;;;;22.17;13.27;;;;;;;0.41;91.55;99760.88;5064989;28;20522;-68
2021/01/08 02:35:53;;;;;;;20.50;12.60;;;;;;;0.50;91.70;99768.22;5063677;28;20504;-67
2021/01/08 02:38:21;;;;;;;20.00;12.63;;;;;;;0.46;91.43;99761.47;5065496;28;20468;-67
2021/01/08 02:40:48;;;;;;;18.93;11.30;;;;;;;0.55;91.21;99774.06;5063580;28;20469;-66
2021/01/08 02:43:19;;;;;;;19.40;12.00;;;;;;;0.45;91.54;99768.53;5064982;28;20441;-67
2021/01/08 02:45:45;;;;;;;21.27;11.97;;;;;;;0.59;91.24;99775.63;5063733;28;20492;-66
2021/01/08 02:48:11;;;;;;;21.60;13.17;;;;;;;0.56;91.33;99767.88;5064400;28;21089;-67
2021/01/08 02:50:37;;;;;;;21.33;13.20;;;;;;;0.54;91.47;99767.97;5063344;28;20476;-66
2021/01/08 02:53:05;;;;;;;20.37;13.40;;;;;;;0.52;91.60;99771.63;5065026;28;20453;-68
2021/01/08 02:55:32;;;;;;;22.43;12.67;;;;;;;0.42;91.60;99760.78;5061649;28;20496;-67
2021/01/08 02:57:59;;;;;;;20.23;12.40;;;;;;;0.54;91.23;99765.34;5064385;28;20473;-67
2021/01/08 03:00:28;;;;;;;24.03;13.17;;;;;;;0.42;91.51;99767.81;5062961;28;20510;-67
2021/01/08 03:02:55;;;;;;;18.67;10.87;;;;;;;0.41;91.84;99768.78;5064899;28;20440;-67
2021/01/08 03:05:21;;;;;;;20.60;12.53;;;;;;;0.40;92.22;99772.31;5063080;28;20469;-67
2021/01/08 03:07:48;;;;;;;24.80;12.60;;;;;;;0.37;91.87;99773.38;5064685;28;20559;-68
2021/01/08 03:10:15;;;;;;;23.30;13.47;;;;;;;0.40;91.96;99777.59;5062763;28;20903;-67
2021/01/08 03:12:42;;;;;;;21.67;13.50;;;;;;;0.40;92.37;99775.81;5064643;28;20905;-67
2021/01/08 03:15:12;;;;;;;24.90;12.23;;;;;;;0.51;91.80;99777.81;5062687;28;20472;-67
2021/01/08 03:17:38;;;;;;;22.23;12.50;;;;;;;0.40;92.17;99773.19;5064596;28;20463;-67
2021/01/08 03:20:06;;;;;;;21.60;11.97;;;;;;;0.44;91.60;99769.44;5062164;28;20532;-67
2021/01/08 03:22:32;;;;;;;24.73;15.10;;;;;;;0.45;91.70;99772.91;5064779;28;20504;-67
2021/01/08 03:24:58;;;;;;;24.10;14.27;;;;;;;0.44;92.10;99772.06;5063867;28;20496;-68
2021/01/08 03:27:24;;;;;;;25.30;14.03;;;;;;;0.41;91.90;99760.88;5062642;28;20495;-67
2021/01/08 03:29:50;;;;;;;28.60;15.13;;;;;;;0.33;92.27;99767.44;5063878;28;20488;-67
2021/01/08 03:32:16;;;;;;;25.13;14.77;;;;;;;0.36;92.22;99769.91;5063316;28;20526;-67
2021/01/08 03:34:43;;;;;;;24.80;15.03;;;;;;;0.43;91.82;99766.91;5063718;28;20457;-67
2021/01/08 03:37:09;;;;;;;26.03;14.23;;;;;;;0.43;91.60;99773.00;5063092;28;20492;-67
2021/01/08 03:39:35;;;;;;;24.07;14.50;;;;;;;0.48;91.20;99770.09;5064010;28;20545;-67
2021/01/08 03:42:02;;;;;;;26.83;14.73;;;;;;;0.39;92.01;99768.00;5062927;28;20468;-68
2021/01/08 03:44:28;;;;;;;26.37;13.80;;;;;;;0.36;91.67;99769.91;5064074;28;20484;-66
2021/01/08 03:46:54;;;;;;;25.53;14.40;;;;;;;0.43;91.61;99780.03;5062891;28;20484;-68
2021/01/08 03:49:20;;;;;;;27.20;13.67;;;;;;;0.29;91.82;99767.69;5062980;28;20527;-67
2021/01/08 03:51:47;;;;;;;26.90;14.30;;;;;;;0.33;91.90;99775.31;5062429;28;20508;-67
2021/01/08 03:54:13;;;;;;;25.77;14.30;;;;;;;0.25;91.89;99771.44;5063657;28;20468;-67
2021/01/08 03:56:39;;;;;;;26.50;14.17;;;;;;;0.15;92.16;99773.72;5062077;28;20945;-68
2021/01/08 03:59:05;;;;;;;30.43;14.80;;;;;;;0.24;92.16;99780.25;5063295;28;20945;-67
2021/01/08 04:01:32;;;;;;;23.73;13.53;;;;;;;0.13;92.21;99783.47;5062274;28;20501;-67
2021/01/08 04:03:58;;;;;;;26.63;15.80;;;;;;;0.16;91.96;99785.94;5063731;28;20461;-67
2021/01/08 04:06:24;;;;;;;29.20;12.73;;;;;;;0.19;92.07;99788.38;5062107;28;20480;-67
2021/01/08 04:08:51;;;;;;;25.60;14.10;;;;;;;0.13;92.26;99794.81;5063658;28;20473;-67
2021/01/08 04:11:17;;;;;;;21.30;12.97;;;;;;;0.11;92.04;99780.94;5061941;28;20960;-67
2021/01/08 04:13:43;;;;;;;26.90;15.40;;;;;;;0.10;92.47;99781.84;5064075;28;20509;-67
2021/01/08 04:16:09;;;;;;;23.70;12.83;;;;;;;0.19;92.37;99788.38;5061874;28;20887;-67
2021/01/08 04:18:35;;;;;;;23.40;12.90;;;;;;;0.18;91.84;99778.81;5063067;28;20490;-67
2021/01/08 04:21:02;;;;;;;22.57;12.93;;;;;;;0.19;91.98;99777.84;5062035;28;20476;-68
2021/01/08 04:23:28;;;;;;;22.63;13.30;;;;;;;0.09;92.03;99774.91;5063782;28;20508;-66
2021/01/08 04:25:55;;;;;;;21.00;13.47;;;;;;;0.09;92.67;99779.34;5061484;28;20539;-67
2021/01/08 04:28:21;;;;;;;21.70;12.37;;;;;;;0.16;92.47;99783.31;5063323;28;21012;-67
2021/01/08 04:30:47;;;;;;;21.70;12.77;;;;;;;0.14;91.97;99783.41;5061484;28;20501;-67
2021/01/08 04:33:13;;;;;;;19.93;10.40;;;;;;;0.13;92.01;99784.31;5063051;28;20616;-67
2021/01/08 04:35:39;;;;;;;20.93;11.77;;;;;;;0.08;92.45;99781.09;5061687;28;20515;-67
2021/01/08 04:38:05;;;;;;;19.90;11.40;;;;;;;0.07;92.58;99789.94;5063635;28;20440;-67
2021/01/08 04:40:32;;;;;;;18.27;11.80;;;;;;;0.11;92.65;99790.59;5061192;28;20503;-67
2021/01/08 04:42:59;;;;;;;19.17;11.20;;;;;;;0.20;91.99;99791.88;5063465;28;20464;-67
2021/01/08 04:45:25;;;;;;;18.20;11.40;;;;;;;0.13;92.29;99789.56;5061440;28;20556;-67
2021/01/08 04:47:53;;;;;;;16.00;10.20;;;;;;;0.16;92.28;99793.81;5063314;28;20512;-67
2021/01/08 04:50:20;;;;;;;16.43;9.33;;;;;;;0.14;92.20;99795.66;5060604;28;20499;-68
2021/01/08 04:52:46;;;;;;;19.90;12.40;;;;;;;0.17;91.99;99792.88;5063435;28;20449;-68
2021/01/08 04:55:14;;;;;;;21.03;11.80;;;;;;;0.13;92.23;99796.63;5061305;28;20449;-67
2021/01/08 04:57:41;;;;;;;16.20;10.63;;;;;;;0.17;92.17;99793.75;5063016;28;20437;-67
2021/01/08 05:00:09;;;;;;;19.77;12.37;;;;;;;0.15;92.36;99794.75;5061660;28;20449;-68
2021/01/08 05:02:35;;;;;;;19.57;11.83;;;;;;;0.11;92.44;99798.50;5063146;28;20468;-68
2021/01/08 05:05:02;;;;;;;17.00;10.40;;;;;;;0.18;92.19;99798.06;5062325;28;20491;-68
2021/01/08 05:07:28;;;;;;;19.93;10.50;;;;;;;0.18;92.38;99797.22;5061291;28;20481;-67
2021/01/08 05:09:54;;;;;;;19.73;10.60;;;;;;;0.09;92.49;99793.31;5062624;28;20985;-68
2021/01/08 05:12:21;;;;;;;18.07;11.87;;;;;;;0.12;92.80;99802.78;5061262;28;20505;-68
2021/01/08 05:14:48;;;;;;;18.07;11.30;;;;;;;0.13;92.99;99800.09;5062493;28;20489;-68
2021/01/08 05:17:29;;;;;;;21.60;12.33;;;;;;;0.24;92.90;99801.28;5061065;28;20505;-68
2021/01/08 05:19:55;;;;;;;18.00;10.87;;;;;;;0.21;92.83;99807.56;5061508;28;20490;-68
2021/01/08 05:22:22;;;;;;;19.20;11.27;;;;;;;0.31;92.77;99806.13;5060857;28;20509;-68
2021/01/08 05:24:48;;;;;;;16.43;10.17;;;;;;;0.40;92.29;99809.13;5054525;28;20529;-68
2021/01/08 05:27:14;;;;;;;18.60;11.30;;;;;;;0.33;92.50;99811.25;5059301;28;20500;-67
2021/01/08 05:29:40;;;;;;;24.43;11.80;;;;;;;0.29;92.81;99813.22;5062135;28;20495;-67
2021/01/08 05:32:06;;;;;;;17.63;11.40;;;;;;;0.46;91.75;99814.91;5060499;28;20477;-68
2021/01/08 05:34:34;;;;;;;23.70;13.60;;;;;;;0.49;91.85;99816.53;5060696;28;20503;-68
2021/01/08 05:37:00;;;;;;;22.30;13.00;;;;;;;0.41;92.01;99824.84;5060383;28;20600;-67
2021/01/08 05:39:27;;;;;;;23.57;14.30;;;;;;;0.40;92.32;99824.91;5061502;28;20453;-68
2021/01/08 05:41:53;;;;;;;23.50;12.20;;;;;;;0.54;91.50;99822.38;5059089;28;20477;-68
2021/01/08 05:44:20;;;;;;;21.47;13.30;;;;;;;0.38;92.26;99822.38;5061727;28;20472;-68
2021/01/08 05:46:47;;;;;;;17.53;11.73;;;;;;;0.52;92.00;99819.81;5060247;28;20565;-67
2021/01/08 05:49:16;;;;;;;20.40;12.83;;;;;;;0.43;91.87;99825.59;5060272;28;20543;-68
2021/01/08 05:51:44;;;;;;;16.93;10.33;;;;;;;0.44;92.16;99829.09;5060372;28;20630;-68
2021/01/08 05:54:11;;;;;;;16.27;10.23;;;;;;;0.60;91.63;99829.91;5061509;28;20441;-68
2021/01/08 05:56:38;;;;;;;22.00;9.67;;;;;;;0.46;91.98;99829.84;5059042;28;20469;-67
2021/01/08 05:59:04;;;;;;;14.07;8.97;;;;;;;0.53;91.93;99839.91;5061369;28;20449;-68
2021/01/08 06:01:32;;;;;;;16.90;9.53;;;;;;;0.55;91.71;99839.84;5059798;28;20559;-68
2021/01/08 06:03:59;;;;;;;13.87;9.80;;;;;;;0.48;92.19;99836.69;5060476;28;20452;-68
2021/01/08 06:06:25;;;;;;;12.93;8.50;;;;;;;0.44;91.82;99837.81;5059747;28;20622;-68
2021/01/08 06:08:53;;;;;;;12.20;8.03;;;;;;;0.52;91.39;99843.50;5061198;28;21018;-68
2021/01/08 06:11:21;;;;;;;13.60;8.30;;;;;;;0.47;91.90;99845.53;5058971;28;20479;-67
2021/01/08 06:13:51;;;;;;;12.73;8.83;;;;;;;0.60;91.15;99847.47;5061596;28;20568;-67
2021/01/08 06:16:18;;;;;;;10.13;7.27;;;;;;;0.61;91.37;99850.03;5059651;28;20508;-68
2021/01/08 06:18:46;;;;;;;11.20;7.90;;;;;;;0.65;90.82;99851.53;5060292;28;20457;-67
2021/01/08 06:21:12;;;;;;;12.47;8.47;;;;;;;0.44;91.29;99853.59;5059617;28;20515;-68
2021/01/08 06:23:54;;;;;;;9.57;7.70;;;;;;;0.57;91.22;99851.09;5061123;28;20990;-67
2021/01/08 06:26:22;;;;;;;11.23;7.60;;;;;;;0.64;90.61;99852.44;4977289;28;21174;-67
2021/01/08 06:28:50;;;;;;;11.57;7.33;;;;;;;0.64;90.70;99860.34;4979689;28;20476;-68
2021/01/08 06:31:25;;;;;;;10.47;6.70;;;;;;;0.60;90.32;99847.47;4980858;28;20476;-67
2021/01/08 06:33:53;;;;;;;10.20;7.37;;;;;;;0.54;90.49;99859.19;4981960;28;20463;-67
2021/01/08 06:36:21;;;;;;;9.77;7.40;;;;;;;0.60;90.71;99852.75;4982052;28;20925;-68
2021/01/08 06:38:49;;;;;;;11.67;7.70;;;;;;;0.53;90.51;99857.50;4983326;28;20463;-68
2021/01/08 06:41:16;;;;;;;10.93;7.57;;;;;;;0.80;91.41;99862.97;4980430;28;20543;-67
2021/01/08 06:43:47;;;;;;;11.07;6.93;;;;;;;0.93;90.93;99855.22;4982389;28;20638;-68
2021/01/08 06:46:27;;;;;;;9.93;7.47;;;;;;;0.99;89.98;99859.25;4979938;28;20484;-68
2021/01/08 06:48:57;;;;;;;10.50;7.50;;;;;;;0.84;89.56;99869.75;4981425;28;20519;-68
2021/01/08 06:51:29;;;;;;;9.10;7.50;;;;;;;0.66;89.61;99869.03;4980053;28;20650;-66
2021/01/08 06:53:57;;;;;;;10.87;7.77;;;;;;;0.66;89.65;99876.91;4982064;28;20495;-67
2021/01/08 06:56:41;;;;;;;10.30;7.20;;;;;;;0.62;89.63;99875.38;4974997;28;20858;-67
2021/01/08 06:59:09;;;;;;;9.90;7.33;;;;;;;0.56;90.10;99887.09;4982608;28;20479;-66
2021/01/08 07:01:42;;;;;;;10.00;7.50;;;;;;;0.40;90.66;99891.53;4981097;28;20480;-67
2021/01/08 07:04:10;;;;;;;10.67;7.40;;;;;;;0.35;91.06;99901.44;5042387;28;20543;-67
2021/01/08 07:06:37;;;;;;;8.70;7.17;;;;;;;0.30;91.59;99896.44;5062804;28;20515;-67
2021/01/08 07:09:05;;;;;;;10.60;7.70;;;;;;;0.28;91.46;99897.44;5064329;28;20481;-67
2021/01/08 07:11:35;;;;;;;10.43;8.13;;;;;;;0.36;90.96;99900.50;5060342;28;20476;-66
2021/01/08 07:14:10;;;;;;;11.13;7.90;;;;;;;0.40;90.73;99903.81;5063602;28;20483;-65
2021/01/08 07:16:44;;;;;;;10.37;8.30;;;;;;;0.43;91.24;99906.28;5061658;28;20482;-66
2021/01/08 07:19:11;;;;;;;7.53;5.97;;;;;;;0.35;90.86;99909.34;5063736;28;20453;-66
2021/01/08 07:21:43;;;;;;;10.93;8.30;;;;;;;0.42;90.92;99910.69;5062409;28;20481;-67
2021/01/08 07:24:10;;;;;;;10.10;7.53;;;;;;;0.50;90.43;99911.09;5064429;28;20880;-66
2021/01/08 07:26:36;;;;;;;9.23;7.50;;;;;;;0.51;90.50;99920.69;5061987;28;20477;-67
2021/01/08 07:29:03;;;;;;;9.47;7.20;;;;;;;0.56;90.15;99920.47;5063899;28;20538;-66
2021/01/08 07:31:31;;;;;;;7.87;6.60;;;;;;;0.56;89.98;99925.72;5057691;28;20507;-66
2021/01/08 07:33:58;;;;;;;11.60;8.47;;;;;;;0.50;90.35;99924.25;5062001;28;20468;-66
2021/01/08 07:36:26;;;;;;;9.50;7.43;;;;;;;0.49;90.53;99929.63;5061154;28;20479;-67
2021/01/08 07:38:52;;;;;;;10.23;7.50;;;;;;;0.54;90.50;99938.09;5063281;28;20502;-66
2021/01/08 07:41:32;;;;;;;9.00;7.67;;;;;;;0.47;90.25;99939.34;5059136;28;20519;-67
2021/01/08 07:43:58;;;;;;;10.33;8.20;;;;;;;0.49;90.45;99946.25;5063267;28;20474;-67
2021/01/08 07:46:30;;;;;;;8.63;6.50;;;;;;;0.61;90.22;99947.34;5060497;28;21005;-66
2021/01/08 07:48:58;;;;;;;10.13;7.33;;;;;;;0.56;90.22;99944.97;5049412;28;20520;-68
2021/01/08 07:51:43;;;;;;;8.87;6.70;;;;;;;0.63;90.13;99952.53;5057640;28;20472;-67
2021/01/08 07:54:10;;;;;;;8.43;6.73;;;;;;;0.47;90.49;99957.75;5061396;28;20471;-67
2021/01/08 07:56:36;;;;;;;10.00;7.00;;;;;;;0.35;91.70;99968.03;5058888;28;20488;-66
2021/01/08 07:59:03;;;;;;;11.23;7.60;;;;;;;0.58;90.98;99965.94;5061528;28;20461;-67
2021/01/08 08:01:31;;;;;;;10.13;7.13;;;;;;;0.50;90.87;99976.84;5053964;28;20530;-68
2021/01/08 08:03:58;;;;;;;11.87;8.03;;;;;;;0.54;91.52;99978.41;5061160;28;20453;-66
2021/01/08 08:06:25;;;;;;;10.47;7.57;;;;;;;0.58;90.71;99980.88;5060491;28;20472;-66
2021/01/08 08:08:52;;;;;;;9.20;7.57;;;;;;;0.71;90.39;99987.16;5062043;28;20555;-66
2021/01/08 08:11:24;;;;;;;9.67;6.67;;;;;;;0.67;90.47;99989.09;5058082;28;20480;-67
2021/01/08 08:13:50;;;;;;;10.23;8.37;;;;;;;0.59;90.29;99986.06;5061021;28;20523;-68
2021/01/08 08:16:16;;;;;;;8.20;6.63;;;;;;;0.76;89.77;99990.38;5059588;28;20480;-66
2021/01/08 08:18:53;;;;;;;11.10;8.07;;;;;;;0.71;89.86;99995.91;5060896;28;20464;-66
2021/01/08 08:21:19;;;;;;;10.60;7.80;;;;;;;0.71;90.10;99998.53;5059881;28;20477;-66
2021/01/08 08:23:51;;;;;;;9.40;6.97;;;;;;;0.79;89.84;100005.16;5061994;28;20516;-67
2021/01/08 08:26:17;;;;;;;11.57;7.33;;;;;;;0.85;89.35;99999.53;5057836;28;20493;-66
2021/01/08 08:28:44;;;;;;;8.43;6.07;;;;;;;0.85;89.12;100003.03;5061614;28;20476;-66
2021/01/08 08:31:13;;;;;;;9.80;6.40;;;;;;;0.87;89.22;100013.50;5059859;28;20619;-66
2021/01/08 08:33:43;;;;;;;11.83;7.93;;;;;;;0.79;89.62;100005.16;5060363;28;20483;-67
2021/01/08 08:36:11;;;;;;;8.20;6.20;;;;;;;0.85;89.40;100020.59;5059377;28;20476;-65
2021/01/08 08:38:37;;;;;;;9.20;6.43;;;;;;;0.88;89.14;100018.63;5061455;28;20437;-66
2021/01/08 08:41:12;;;;;;;9.27;6.63;;;;;;;0.94;89.36;100022.75;5058567;28;20477;-68
2021/01/08 08:43:38;;;;;;;10.30;7.10;;;;;;;1.05;88.90;100025.63;5061868;28;20452;-68
2021/01/08 08:46:04;;;;;;;8.90;6.53;;;;;;;1.01;88.21;100021.47;5058966;28;20477;-67
2021/01/08 08:48:31;;;;;;;8.70;6.53;;;;;;;1.06;88.45;100027.31;5059990;28;20480;-65
2021/01/08 08:50:57;;;;;;;9.53;6.03;;;;;;;1.06;88.35;100036.97;5059482;28;20481;-69
2021/01/08 08:53:24;;;;;;;9.10;6.17;;;;;;;1.13;88.10;100033.09;5061311;28;20445;-68
2021/01/08 08:55:51;;;;;;;9.10;6.00;;;;;;;1.15;88.34;100039.13;5058321;28;20502;-67
2021/01/08 08:58:18;;;;;;;8.30;6.30;;;;;;;1.16;88.32;100040.81;5060752;28;20897;-67
2021/01/08 09:00:44;;;;;;;9.17;5.90;;;;;;;1.12;87.77;100042.75;5058259;28;20477;-67
2021/01/08 09:03:18;;;;;;;6.03;4.70;;;;;;;1.12;87.76;100047.19;5060337;28;20445;-66
2021/01/08 09:05:44;;;;;;;7.30;6.07;;;;;;;1.18;88.17;100044.22;5058161;28;20453;-65
2021/01/08 09:08:14;;;;;;;8.53;5.73;;;;;;;1.19;87.56;100045.06;5058495;28;20506;-67
2021/01/08 09:10:50;;;;;;;6.40;5.00;;;;;;;1.35;86.37;100051.16;5057685;28;20461;-71
2021/01/08 09:13:20;;;;;;;4.47;4.00;;;;;;;1.13;86.91;100054.16;5058054;28;20475;-70
2021/01/08 09:15:51;;;;;;;5.87;4.37;;;;;;;1.22;87.22;100055.44;5057128;28;20519;-71
2021/01/08 09:18:28;;;;;;;6.23;4.40;;;;;;;1.32;87.29;100061.88;5060133;28;20476;-70
2021/01/08 09:20:58;;;;;;;5.40;4.10;;;;;;;1.34;87.32;100064.41;5056836;28;21182;-71
2021/01/08 09:23:26;;;;;;;6.67;4.23;;;;;;;1.18;87.40;100067.91;5060114;28;20936;-72
2021/01/08 09:25:53;;;;;;;6.50;4.90;;;;;;;1.14;87.21;100063.75;5055182;28;20508;-67
2021/01/08 09:28:20;;;;;;;8.53;5.30;;;;;;;1.04;86.98;100073.94;5060315;28;20441;-67
2021/01/08 09:30:49;;;;;;;7.53;4.93;;;;;;;1.11;87.19;100072.69;5057995;28;20546;-68
2021/01/08 09:33:16;;;;;;;7.20;5.33;;;;;;;0.92;87.50;100079.84;5058095;28;20441;-66
2021/01/08 09:35:44;;;;;;;6.80;5.40;;;;;;;0.96;87.85;100072.66;5057519;28;20897;-67
2021/01/08 09:38:14;;;;;;;7.17;5.07;;;;;;;0.99;88.31;100072.47;5059393;28;20861;-67
2021/01/08 09:40:41;;;;;;;6.77;5.60;;;;;;;1.04;87.55;100081.84;5058600;28;20688;-67
2021/01/08 09:43:15;;;;;;;11.97;6.57;;;;;;;0.91;87.55;100093.97;5060658;28;20459;-67
2021/01/08 09:45:42;;;;;;;7.13;4.87;;;;;;;0.97;87.07;100085.72;5056277;28;20483;-67
2021/01/08 09:48:20;;;;;;;10.00;6.63;;;;;;;1.08;87.44;100082.53;5059628;28;20453;-66
2021/01/08 09:50:46;;;;;;;9.27;5.90;;;;;;;1.15;86.99;100078.63;5057371;28;20506;-67
2021/01/08 09:53:12;;;;;;;7.20;5.60;;;;;;;1.10;87.29;100084.13;5056576;28;20483;-67
2021/01/08 09:55:39;;;;;;;10.60;6.90;;;;;;;1.03;86.73;100081.94;5058288;28;20499;-69
2021/01/08 09:58:05;;;;;;;9.93;6.30;;;;;;;1.08;87.76;100088.63;5059527;28;20465;-70
2021/01/08 10:00:33;;;;;;;9.13;7.00;;;;;;;1.04;87.44;100092.38;5057498;28;20468;-69
2021/01/08 10:03:00;;;;;;;9.70;7.00;;;;;;;0.98;87.69;100097.97;5060303;28;20484;-70
2021/01/08 10:05:28;;;;;;;10.77;7.47;;;;;;;1.08;87.72;100091.25;5059539;28;20479;-69
2021/01/08 10:07:55;;;;;;;15.10;8.73;;;;;;;1.18;87.27;100091.63;5063044;28;20459;-69
2021/01/08 10:10:42;;;;;;;13.37;8.37;;;;;;;1.20;87.04;100099.41;5056925;28;20492;-69
2021/01/08 10:13:22;;;;;;;9.90;7.70;;;;;;;1.31;86.79;100099.69;5060107;28;20519;-67
2021/01/08 10:15:50;;;;;;;13.23;8.50;;;;;;;1.38;86.63;100095.75;5056879;28;20464;-67
2021/01/08 10:18:22;;;;;;;12.37;7.50;;;;;;;1.42;87.20;100097.28;5060992;28;20914;-66
2021/01/08 10:20:53;;;;;;;11.47;6.93;;;;;;;1.56;86.74;100104.41;5058638;28;20472;-67
2021/01/08 10:23:20;;;;;;;10.77;7.53;;;;;;;1.43;86.57;100103.41;5060112;28;20571;-66
2021/01/08 10:25:49;;;;;;;12.40;7.90;;;;;;;1.25;86.77;100098.25;5059089;28;20763;-69
2021/01/08 10:28:17;;;;;;;13.30;7.37;;;;;;;1.29;86.95;100101.56;5060691;28;20852;-69
2021/01/08 10:30:45;;;;;;;11.17;7.33;;;;;;;1.31;87.23;100099.69;5056125;28;20495;-68
2021/01/08 10:33:12;;;;;;;13.40;8.30;;;;;;;1.14;87.48;100103.22;5060933;28;20520;-69
2021/01/08 10:35:44;;;;;;;10.00;6.60;;;;;;;1.23;87.79;100108.03;5058455;28;20756;-69
2021/01/08 10:38:10;;;;;;;15.07;8.07;;;;;;;1.12;86.89;100097.22;5058314;28;20965;-70
2021/01/08 10:40:37;;;;;;;14.10;9.00;;;;;;;0.96;87.49;100110.38;5059676;28;21020;-68
2021/01/08 10:43:04;;;;;;;13.70;8.30;;;;;;;1.01;87.81;100108.34;5059244;28;20964;-69
2021/01/08 10:45:30;;;;;;;15.60;8.50;;;;;;;1.12;87.52;100113.00;5058333;28;20522;-70
2021/01/08 10:47:56;;;;;;;15.63;8.20;;;;;;;1.28;87.50;100105.94;5060959;28;20452;-70
2021/01/08 10:50:24;;;;;;;11.40;7.73;;;;;;;1.23;86.79;100113.28;5058048;28;20554;-64
2021/01/08 10:52:50;;;;;;;12.93;8.80;;;;;;;1.33;86.45;100107.50;5059151;28;20429;-66
2021/01/08 10:55:16;;;;;;;13.33;7.90;;;;;;;1.32;86.19;100111.94;5055293;28;20469;-68
2021/01/08 10:57:42;;;;;;;12.20;7.07;;;;;;;1.43;86.07;100106.06;5060198;28;20461;-66
2021/01/08 11:00:10;;;;;;;11.40;7.67;;;;;;;1.47;86.47;100112.84;5060410;28;20503;-64
2021/01/08 11:02:36;;;;;;;11.50;8.00;;;;;;;1.64;85.70;100102.19;5060825;28;20622;-70
2021/01/08 11:05:04;;;;;;;12.33;7.70;;;;;;;1.66;85.60;100113.50;5060224;28;20485;-66
2021/01/08 11:07:33;;;;;;;14.00;8.47;;;;;;;1.67;85.94;100112.56;5060537;28;20499;-66
2021/01/08 11:09:59;;;;;;;12.20;7.70;;;;;;;1.59;85.34;100108.66;5062546;28;20845;-68
2021/01/08 11:12:27;;;;;;;13.70;8.33;;;;;;;1.48;86.13;100115.38;5058080;28;20508;-66
2021/01/08 11:14:53;;;;;;;11.80;8.20;;;;;;;1.20;86.61;100117.84;5060364;28;20476;-67
2021/01/08 11:17:20;;;;;;;11.77;7.43;;;;;;;1.23;86.12;100112.41;5059724;28;20472;-67
2021/01/08 11:19:46;;;;;;;12.53;8.00;;;;;;;1.13;86.07;100122.63;5057605;28;20471;-66
2021/01/08 11:22:12;;;;;;;12.63;7.60;;;;;;;1.23;85.79;100118.56;5058828;28;20496;-67
2021/01/08 11:24:39;;;;;;;9.90;7.43;;;;;;;1.35;85.87;100116.16;5062844;28;20472;-68
2021/01/08 11:27:05;;;;;;;12.70;7.20;;;;;;;1.31;85.92;100121.59;5045022;28;20544;-68
2021/01/08 11:29:31;;;;;;;10.87;7.17;;;;;;;1.41;85.62;100121.94;5061117;28;21025;-70
2021/01/08 11:31:57;;;;;;;11.30;7.00;;;;;;;1.34;85.97;100123.22;5060675;28;21398;-69